PAX377 FMEE-FIMP
Flight info
| Callsign | PAX377 |
|---|---|
| Flight time | 1h 29m |
| Altitude | FL130 |
| Route | FFLAC FFLAC1 |
| Aircraft | A332/M-SDE2E3FGHIRWXY/LB1 |
Departure
| Time | 2026-04-23 09:59 |
|---|---|
| Airport | Roland Garros Airport (FMEE) |
Arrival
| Time | 2026-04-23 11:28 |
|---|---|
| Airport | Sir Seewoosagur Ramgoolam International Airport (FIMP) |
| Time | Latitude | Longitude | Altitude | Speed | Heading |
|---|---|---|---|---|---|
| 2026-04-23 09:58 | -20.88472 | 55.50520 | 53 ft | 0 kts | 116° |
| 2026-04-23 09:59 | -20.88505 | 55.50594 | 55 ft | 42 kts | 116° |
| 2026-04-23 09:59 | -20.88768 | 55.51170 | 67 ft | 129 kts | 116° |
| 2026-04-23 09:59 | -20.89273 | 55.52238 | 289 ft | 181 kts | 117° |
| 2026-04-23 09:59 | -20.89850 | 55.53430 | 1284 ft | 177 kts | 117° |
| 2026-04-23 10:00 | -20.90406 | 55.54580 | 2157 ft | 170 kts | 117° |
| 2026-04-23 10:00 | -20.90864 | 55.55730 | 2797 ft | 176 kts | 99° |
| 2026-04-23 10:00 | -20.90626 | 55.57065 | 3174 ft | 198 kts | 63° |
| 2026-04-23 10:00 | -20.89550 | 55.58117 | 3624 ft | 221 kts | 36° |
| 2026-04-23 10:01 | -20.88313 | 55.59147 | 4160 ft | 231 kts | 51° |
| 2026-04-23 10:01 | -20.87328 | 55.60525 | 4868 ft | 237 kts | 62° |
| 2026-04-23 10:01 | -20.86523 | 55.62108 | 5594 ft | 252 kts | 67° |
| 2026-04-23 10:01 | -20.85802 | 55.63848 | 6479 ft | 260 kts | 70° |
| 2026-04-23 10:02 | -20.85125 | 55.65653 | 7499 ft | 264 kts | 71° |
| 2026-04-23 10:02 | -20.84461 | 55.67510 | 8522 ft | 268 kts | 72° |
| 2026-04-23 10:02 | -20.83802 | 55.69392 | 9524 ft | 272 kts | 72° |
| 2026-04-23 10:02 | -20.83141 | 55.71297 | 10523 ft | 276 kts | 72° |
| 2026-04-23 10:03 | -20.82474 | 55.73224 | 11513 ft | 280 kts | 72° |
| 2026-04-23 10:03 | -20.81794 | 55.75189 | 12486 ft | 285 kts | 72° |
| 2026-04-23 10:03 | -20.81107 | 55.77176 | 13436 ft | 289 kts | 72° |
| 2026-04-23 10:03 | -20.80407 | 55.79199 | 14364 ft | 294 kts | 72° |
| 2026-04-23 10:04 | -20.79672 | 55.81327 | 14879 ft | 315 kts | 72° |
| 2026-04-23 10:04 | -20.78886 | 55.83603 | 15315 ft | 338 kts | 71° |
| 2026-04-23 10:04 | -20.78045 | 55.86032 | 15669 ft | 365 kts | 71° |
| 2026-04-23 10:04 | -20.77125 | 55.88689 | 15742 ft | 399 kts | 71° |
| 2026-04-23 10:05 | -20.76154 | 55.91511 | 15740 ft | 410 kts | 72° |
| 2026-04-23 10:05 | -20.75199 | 55.94384 | 15732 ft | 410 kts | 72° |
| 2026-04-23 10:05 | -20.74267 | 55.97240 | 15730 ft | 410 kts | 72° |
| 2026-04-23 10:05 | -20.73341 | 56.00095 | 15730 ft | 410 kts | 72° |
| 2026-04-23 10:06 | -20.72396 | 56.03006 | 15730 ft | 410 kts | 72° |
| 2026-04-23 10:06 | -20.71464 | 56.05875 | 15730 ft | 410 kts | 72° |
| 2026-04-23 10:06 | -20.70536 | 56.08730 | 15730 ft | 410 kts | 72° |
| 2026-04-23 10:06 | -20.69600 | 56.11607 | 15730 ft | 410 kts | 72° |
| 2026-04-23 10:07 | -20.68684 | 56.14419 | 15730 ft | 410 kts | 72° |
| 2026-04-23 10:07 | -20.67728 | 56.17352 | 15730 ft | 410 kts | 72° |
| 2026-04-23 10:07 | -20.66797 | 56.20207 | 15730 ft | 410 kts | 72° |
| 2026-04-23 10:07 | -20.65871 | 56.23046 | 15730 ft | 410 kts | 72° |
| 2026-04-23 10:08 | -20.64950 | 56.25867 | 15730 ft | 410 kts | 72° |
| 2026-04-23 10:08 | -20.64012 | 56.28737 | 15730 ft | 410 kts | 72° |
| 2026-04-23 10:08 | -20.63072 | 56.31612 | 15730 ft | 410 kts | 72° |
| 2026-04-23 10:09 | -20.61189 | 56.37368 | 15730 ft | 410 kts | 72° |
| 2026-04-23 10:09 | -20.60251 | 56.40232 | 15730 ft | 410 kts | 72° |
| 2026-04-23 10:09 | -20.59312 | 56.43098 | 15730 ft | 410 kts | 72° |
| 2026-04-23 10:09 | -20.58373 | 56.45959 | 15730 ft | 410 kts | 72° |
| 2026-04-23 10:10 | -20.57440 | 56.48805 | 15730 ft | 410 kts | 72° |
| 2026-04-23 10:10 | -20.56498 | 56.51674 | 15730 ft | 410 kts | 72° |
| 2026-04-23 10:10 | -20.55557 | 56.54538 | 15730 ft | 410 kts | 72° |
| 2026-04-23 10:10 | -20.54606 | 56.57430 | 15730 ft | 410 kts | 72° |
| 2026-04-23 10:11 | -20.53666 | 56.60286 | 15743 ft | 411 kts | 72° |
| 2026-04-23 10:11 | -20.52724 | 56.63149 | 15756 ft | 411 kts | 72° |
| 2026-04-23 10:11 | -20.51780 | 56.66016 | 15757 ft | 411 kts | 72° |
| 2026-04-23 10:11 | -20.50834 | 56.68886 | 15757 ft | 411 kts | 72° |
| 2026-04-23 10:12 | -20.49893 | 56.71740 | 15757 ft | 411 kts | 72° |
| 2026-04-23 10:12 | -20.48947 | 56.74606 | 15757 ft | 411 kts | 72° |
| 2026-04-23 10:12 | -20.47995 | 56.77490 | 15757 ft | 411 kts | 72° |
| 2026-04-23 10:12 | -20.47047 | 56.80358 | 15757 ft | 411 kts | 72° |
| 2026-04-23 10:13 | -20.46103 | 56.83212 | 15757 ft | 411 kts | 72° |
| 2026-04-23 10:13 | -20.45157 | 56.86073 | 15757 ft | 411 kts | 72° |
| 2026-04-23 10:13 | -20.44210 | 56.88934 | 15757 ft | 411 kts | 72° |
| 2026-04-23 10:13 | -20.43262 | 56.91795 | 15757 ft | 411 kts | 72° |
| 2026-04-23 10:14 | -20.42314 | 56.94657 | 15757 ft | 411 kts | 72° |
| 2026-04-23 10:14 | -20.41360 | 56.97535 | 15757 ft | 411 kts | 72° |
| 2026-04-23 10:14 | -20.40409 | 57.00401 | 15757 ft | 411 kts | 72° |
| 2026-04-23 10:14 | -20.39457 | 57.03268 | 15757 ft | 411 kts | 72° |
| 2026-04-23 10:15 | -20.38508 | 57.06123 | 15757 ft | 411 kts | 72° |
| 2026-04-23 10:15 | -20.37558 | 57.08981 | 15757 ft | 411 kts | 72° |
| 2026-04-23 10:15 | -20.36610 | 57.11832 | 15757 ft | 411 kts | 72° |
| 2026-04-23 10:15 | -20.35654 | 57.14703 | 15757 ft | 411 kts | 72° |
| 2026-04-23 10:16 | -20.34696 | 57.17581 | 15757 ft | 411 kts | 72° |
| 2026-04-23 10:16 | -20.33746 | 57.20432 | 15757 ft | 411 kts | 72° |
| 2026-04-23 10:16 | -20.32790 | 57.23296 | 15757 ft | 411 kts | 72° |
| 2026-04-23 10:16 | -20.31843 | 57.26137 | 15757 ft | 411 kts | 72° |
| 2026-04-23 10:17 | -20.30883 | 57.29013 | 15757 ft | 411 kts | 72° |
| 2026-04-23 10:17 | -20.29936 | 57.31850 | 15757 ft | 411 kts | 72° |
| 2026-04-23 10:17 | -20.29129 | 57.34763 | 15748 ft | 409 kts | 81° |
| 2026-04-23 10:17 | -20.29043 | 57.37769 | 15756 ft | 408 kts | 96° |
| 2026-04-23 10:18 | -20.29755 | 57.40689 | 15760 ft | 409 kts | 111° |
| 2026-04-23 10:18 | -20.30973 | 57.43439 | 15763 ft | 409 kts | 116° |
| 2026-04-23 10:18 | -20.32295 | 57.46134 | 15758 ft | 409 kts | 116° |
| 2026-04-23 10:18 | -20.33595 | 57.48806 | 15756 ft | 409 kts | 116° |
| 2026-04-23 10:19 | -20.34881 | 57.51486 | 15756 ft | 409 kts | 116° |
| 2026-04-23 10:19 | -20.36173 | 57.54168 | 15757 ft | 409 kts | 116° |
| 2026-04-23 10:19 | -20.37472 | 57.56864 | 15757 ft | 409 kts | 116° |
| 2026-04-23 10:19 | -20.38771 | 57.59560 | 15757 ft | 409 kts | 116° |
| 2026-04-23 10:20 | -20.40065 | 57.62245 | 15757 ft | 409 kts | 116° |
| 2026-04-23 10:20 | -20.41377 | 57.64959 | 15757 ft | 409 kts | 116° |
| 2026-04-23 10:20 | -20.42669 | 57.67634 | 15757 ft | 409 kts | 116° |
| 2026-04-23 10:20 | -20.43967 | 57.70326 | 15757 ft | 409 kts | 116° |
| 2026-04-23 10:21 | -20.45272 | 57.73013 | 15777 ft | 409 kts | 116° |
| 2026-04-23 10:21 | -20.46580 | 57.75696 | 15782 ft | 409 kts | 116° |
| 2026-04-23 10:21 | -20.47889 | 57.78381 | 15782 ft | 409 kts | 116° |
| 2026-04-23 10:21 | -20.49196 | 57.81063 | 15782 ft | 409 kts | 116° |
| 2026-04-23 10:22 | -20.50512 | 57.83765 | 15782 ft | 409 kts | 116° |
| 2026-04-23 10:22 | -20.51822 | 57.86458 | 15782 ft | 409 kts | 116° |
| 2026-04-23 10:22 | -20.53128 | 57.89144 | 15782 ft | 409 kts | 116° |
| 2026-04-23 10:22 | -20.54435 | 57.91832 | 15782 ft | 409 kts | 116° |
| 2026-04-23 10:23 | -20.55733 | 57.94505 | 15782 ft | 409 kts | 116° |
| 2026-04-23 10:23 | -20.57047 | 57.97213 | 15782 ft | 409 kts | 116° |
| 2026-04-23 10:23 | -20.58356 | 57.99912 | 15782 ft | 409 kts | 116° |
| 2026-04-23 10:23 | -20.59657 | 58.02596 | 15782 ft | 409 kts | 116° |
| 2026-04-23 10:24 | -20.60955 | 58.05275 | 15782 ft | 409 kts | 116° |
| 2026-04-23 10:24 | -20.62270 | 58.07991 | 15782 ft | 409 kts | 116° |
| 2026-04-23 10:24 | -20.63577 | 58.10692 | 15782 ft | 409 kts | 116° |
| 2026-04-23 10:24 | -20.64872 | 58.13372 | 15782 ft | 409 kts | 116° |
| 2026-04-23 10:25 | -20.66147 | 58.16010 | 15782 ft | 409 kts | 116° |
| 2026-04-23 10:25 | -20.67442 | 58.18693 | 15782 ft | 409 kts | 116° |
| 2026-04-23 10:25 | -20.68780 | 58.21464 | 15782 ft | 409 kts | 116° |
| 2026-04-23 10:25 | -20.70081 | 58.24164 | 15782 ft | 409 kts | 116° |
| 2026-04-23 10:26 | -20.71362 | 58.26821 | 15782 ft | 409 kts | 116° |
| 2026-04-23 10:26 | -20.72636 | 58.29466 | 15782 ft | 409 kts | 116° |
| 2026-04-23 10:26 | -20.73966 | 58.32230 | 15782 ft | 409 kts | 116° |
| 2026-04-23 10:26 | -20.75262 | 58.34923 | 15782 ft | 409 kts | 116° |
| 2026-04-23 10:27 | -20.76574 | 58.37652 | 15782 ft | 409 kts | 116° |
| 2026-04-23 10:27 | -20.77866 | 58.40343 | 15782 ft | 409 kts | 116° |
| 2026-04-23 10:27 | -20.79161 | 58.43040 | 15782 ft | 409 kts | 116° |
| 2026-04-23 10:27 | -20.80459 | 58.45746 | 15782 ft | 409 kts | 116° |
| 2026-04-23 10:28 | -20.81750 | 58.48437 | 15782 ft | 409 kts | 116° |
| 2026-04-23 10:28 | -20.83048 | 58.51146 | 15782 ft | 409 kts | 116° |
| 2026-04-23 10:28 | -20.84354 | 58.53874 | 15782 ft | 409 kts | 116° |
| 2026-04-23 10:28 | -20.85646 | 58.56573 | 15782 ft | 409 kts | 116° |
| 2026-04-23 10:29 | -20.86932 | 58.59261 | 15782 ft | 409 kts | 116° |
| 2026-04-23 10:29 | -20.88229 | 58.61976 | 15782 ft | 409 kts | 116° |
| 2026-04-23 10:29 | -20.89511 | 58.64659 | 15782 ft | 409 kts | 116° |
| 2026-04-23 10:29 | -20.90802 | 58.67365 | 15782 ft | 409 kts | 116° |
| 2026-04-23 10:30 | -20.92079 | 58.70040 | 15782 ft | 409 kts | 116° |
| 2026-04-23 10:30 | -20.93378 | 58.72764 | 15782 ft | 409 kts | 116° |
| 2026-04-23 10:30 | -20.94668 | 58.75471 | 15782 ft | 409 kts | 116° |
| 2026-04-23 10:30 | -20.95968 | 58.78202 | 15782 ft | 409 kts | 116° |
| 2026-04-23 10:31 | -20.97253 | 58.80902 | 15782 ft | 409 kts | 116° |
| 2026-04-23 10:31 | -20.98535 | 58.83596 | 15782 ft | 409 kts | 116° |
| 2026-04-23 10:31 | -20.99826 | 58.86312 | 15782 ft | 409 kts | 116° |
| 2026-04-23 10:31 | -21.01115 | 58.89028 | 15782 ft | 409 kts | 116° |
| 2026-04-23 10:32 | -21.02370 | 58.91671 | 15782 ft | 409 kts | 116° |
| 2026-04-23 10:32 | -21.03696 | 58.94466 | 15782 ft | 409 kts | 116° |
| 2026-04-23 10:32 | -21.04978 | 58.97169 | 15782 ft | 409 kts | 116° |
| 2026-04-23 10:32 | -21.06265 | 58.99885 | 15782 ft | 409 kts | 116° |
| 2026-04-23 10:33 | -21.07521 | 59.02538 | 15782 ft | 409 kts | 116° |
| 2026-04-23 10:33 | -21.08740 | 59.05111 | 15782 ft | 409 kts | 116° |
| 2026-04-23 10:33 | -21.10018 | 59.07815 | 15782 ft | 409 kts | 116° |
| 2026-04-23 10:33 | -21.11295 | 59.10516 | 15782 ft | 409 kts | 116° |
| 2026-04-23 10:34 | -21.12580 | 59.13236 | 15782 ft | 409 kts | 116° |
| 2026-04-23 10:34 | -21.13866 | 59.15958 | 15782 ft | 409 kts | 116° |
| 2026-04-23 10:34 | -21.15142 | 59.18662 | 15782 ft | 409 kts | 116° |
| 2026-04-23 10:34 | -21.16431 | 59.21396 | 15782 ft | 409 kts | 116° |
| 2026-04-23 10:35 | -21.17707 | 59.24104 | 15782 ft | 409 kts | 116° |
| 2026-04-23 10:35 | -21.18989 | 59.26825 | 15782 ft | 409 kts | 116° |
| 2026-04-23 10:35 | -21.20264 | 59.29534 | 15782 ft | 409 kts | 116° |
| 2026-04-23 10:35 | -21.21541 | 59.32247 | 15782 ft | 409 kts | 116° |
| 2026-04-23 10:36 | -21.22822 | 59.34972 | 15782 ft | 409 kts | 116° |
| 2026-04-23 10:36 | -21.24095 | 59.37682 | 15782 ft | 409 kts | 116° |
| 2026-04-23 10:36 | -21.25383 | 59.40423 | 15782 ft | 409 kts | 116° |
| 2026-04-23 10:36 | -21.26656 | 59.43136 | 15782 ft | 409 kts | 116° |
| 2026-04-23 10:37 | -21.27928 | 59.45849 | 15782 ft | 409 kts | 116° |
| 2026-04-23 10:37 | -21.29205 | 59.48572 | 15782 ft | 409 kts | 116° |
| 2026-04-23 10:37 | -21.30478 | 59.51288 | 15782 ft | 409 kts | 116° |
| 2026-04-23 10:37 | -21.31749 | 59.54003 | 15781 ft | 405 kts | 116° |
| 2026-04-23 10:38 | -21.32982 | 59.56635 | 15742 ft | 390 kts | 116° |
| 2026-04-23 10:38 | -21.34197 | 59.59226 | 15206 ft | 382 kts | 116° |
| 2026-04-23 10:38 | -21.35377 | 59.61744 | 14607 ft | 376 kts | 115° |
| 2026-04-23 10:38 | -21.36600 | 59.64180 | 13999 ft | 370 kts | 123° |
| 2026-04-23 10:39 | -21.38360 | 59.66136 | 13402 ft | 366 kts | 141° |
| 2026-04-23 10:39 | -21.40623 | 59.67346 | 12803 ft | 365 kts | 160° |
| 2026-04-23 10:39 | -21.43135 | 59.67662 | 12204 ft | 366 kts | 180° |
| 2026-04-23 10:39 | -21.45611 | 59.67030 | 11603 ft | 368 kts | 200° |
| 2026-04-23 10:40 | -21.47750 | 59.65499 | 10997 ft | 370 kts | 221° |
| 2026-04-23 10:40 | -21.49249 | 59.63269 | 10395 ft | 370 kts | 243° |
| 2026-04-23 10:40 | -21.49923 | 59.60630 | 9794 ft | 369 kts | 264° |
| 2026-04-23 10:40 | -21.49692 | 59.57929 | 9194 ft | 365 kts | 286° |
| 2026-04-23 10:41 | -21.48600 | 59.55527 | 8594 ft | 358 kts | 308° |
| 2026-04-23 10:41 | -21.46818 | 59.53747 | 7996 ft | 348 kts | 330° |
| 2026-04-23 10:41 | -21.44829 | 59.52272 | 7394 ft | 348 kts | 318° |
| 2026-04-23 10:41 | -21.43418 | 59.50173 | 6794 ft | 348 kts | 295° |
| 2026-04-23 10:42 | -21.42835 | 59.47695 | 6198 ft | 345 kts | 272° |
| 2026-04-23 10:42 | -21.43148 | 59.45191 | 5603 ft | 339 kts | 249° |
| 2026-04-23 10:42 | -21.44309 | 59.43094 | 5302 ft | 319 kts | 223° |
| 2026-04-23 10:42 | -21.46029 | 59.41794 | 5250 ft | 288 kts | 197° |
| 2026-04-23 10:43 | -21.47907 | 59.41463 | 5252 ft | 271 kts | 170° |
| 2026-04-23 10:43 | -21.49718 | 59.41926 | 5265 ft | 266 kts | 158° |
| 2026-04-23 10:43 | -21.51492 | 59.42546 | 5260 ft | 266 kts | 158° |
| 2026-04-23 10:43 | -21.53251 | 59.43172 | 5260 ft | 266 kts | 158° |
| 2026-04-23 10:44 | -21.55000 | 59.43795 | 5260 ft | 266 kts | 157° |
| 2026-04-23 10:44 | -21.56762 | 59.44423 | 5261 ft | 266 kts | 158° |
| 2026-04-23 10:44 | -21.58517 | 59.45049 | 5260 ft | 266 kts | 157° |
| 2026-04-23 10:44 | -21.60255 | 59.45669 | 5260 ft | 266 kts | 157° |
| 2026-04-23 10:45 | -21.62029 | 59.46303 | 5260 ft | 265 kts | 156° |
| 2026-04-23 10:45 | -21.63568 | 59.47307 | 5255 ft | 258 kts | 130° |
| 2026-04-23 10:45 | -21.64443 | 59.48958 | 5258 ft | 255 kts | 103° |
| 2026-04-23 10:45 | -21.64439 | 59.50841 | 5258 ft | 257 kts | 76° |
| 2026-04-23 10:46 | -21.63557 | 59.52509 | 5258 ft | 264 kts | 49° |
| 2026-04-23 10:46 | -21.61995 | 59.53552 | 5258 ft | 273 kts | 21° |
| 2026-04-23 10:46 | -21.60092 | 59.53717 | 5259 ft | 284 kts | 355° |
| 2026-04-23 10:46 | -21.58154 | 59.53163 | 5265 ft | 287 kts | 346° |
| 2026-04-23 10:47 | -21.56241 | 59.52492 | 5260 ft | 287 kts | 346° |
| 2026-04-23 10:47 | -21.54357 | 59.51822 | 5260 ft | 287 kts | 346° |
| 2026-04-23 10:47 | -21.52456 | 59.51145 | 5260 ft | 287 kts | 346° |
| 2026-04-23 10:47 | -21.50654 | 59.50207 | 5254 ft | 293 kts | 324° |
| 2026-04-23 10:48 | -21.49354 | 59.48517 | 5260 ft | 299 kts | 297° |
| 2026-04-23 10:48 | -21.48842 | 59.46371 | 5261 ft | 299 kts | 270° |
| 2026-04-23 10:48 | -21.49221 | 59.44218 | 5261 ft | 296 kts | 243° |
| 2026-04-23 10:48 | -21.50418 | 59.42459 | 5261 ft | 288 kts | 216° |
| 2026-04-23 10:49 | -21.52143 | 59.41482 | 5260 ft | 278 kts | 189° |
| 2026-04-23 10:49 | -21.54021 | 59.41445 | 5260 ft | 268 kts | 162° |
| 2026-04-23 10:49 | -21.55721 | 59.42204 | 5262 ft | 265 kts | 154° |
| 2026-04-23 10:49 | -21.57559 | 59.42488 | 5259 ft | 275 kts | 182° |
| 2026-04-23 10:50 | -21.59380 | 59.41821 | 5259 ft | 285 kts | 209° |
| 2026-04-23 10:50 | -21.60790 | 59.40300 | 5259 ft | 294 kts | 236° |
| 2026-04-23 10:50 | -21.61460 | 59.38219 | 5258 ft | 299 kts | 263° |
| 2026-04-23 10:50 | -21.61234 | 59.36027 | 5258 ft | 299 kts | 290° |
| 2026-04-23 10:51 | -21.60281 | 59.34048 | 5266 ft | 298 kts | 303° |
| 2026-04-23 10:51 | -21.59178 | 59.32168 | 5261 ft | 298 kts | 304° |
| 2026-04-23 10:51 | -21.58068 | 59.30310 | 5260 ft | 298 kts | 304° |
| 2026-04-23 10:51 | -21.56946 | 59.28437 | 5260 ft | 298 kts | 304° |
| 2026-04-23 10:52 | -21.55829 | 59.26575 | 5260 ft | 298 kts | 304° |
| 2026-04-23 10:52 | -21.54705 | 59.24700 | 5260 ft | 298 kts | 304° |
| 2026-04-23 10:52 | -21.53585 | 59.22833 | 5260 ft | 298 kts | 304° |
| 2026-04-23 10:52 | -21.52471 | 59.20978 | 5260 ft | 298 kts | 304° |
| 2026-04-23 10:53 | -21.51343 | 59.19100 | 5260 ft | 298 kts | 304° |
| 2026-04-23 10:53 | -21.50224 | 59.17237 | 5260 ft | 298 kts | 304° |
| 2026-04-23 10:53 | -21.49105 | 59.15376 | 5260 ft | 298 kts | 304° |
| 2026-04-23 10:53 | -21.47989 | 59.13519 | 5260 ft | 298 kts | 304° |
| 2026-04-23 10:54 | -21.46866 | 59.11652 | 5260 ft | 298 kts | 304° |
| 2026-04-23 10:54 | -21.45744 | 59.09789 | 5260 ft | 298 kts | 304° |
| 2026-04-23 10:54 | -21.44627 | 59.07934 | 5260 ft | 298 kts | 304° |
| 2026-04-23 10:54 | -21.43496 | 59.06056 | 5260 ft | 298 kts | 304° |
| 2026-04-23 10:55 | -21.42374 | 59.04196 | 5260 ft | 298 kts | 304° |
| 2026-04-23 10:55 | -21.41256 | 59.02341 | 5260 ft | 298 kts | 304° |
| 2026-04-23 10:55 | -21.40132 | 59.00478 | 5260 ft | 298 kts | 304° |
| 2026-04-23 10:55 | -21.39009 | 58.98619 | 5260 ft | 298 kts | 304° |
| 2026-04-23 10:56 | -21.37886 | 58.96759 | 5260 ft | 298 kts | 304° |
| 2026-04-23 10:56 | -21.36987 | 58.95270 | 5260 ft | 298 kts | 304° |
| 2026-04-23 10:56 | -21.36307 | 58.94144 | 5260 ft | 298 kts | 304° |
| 2026-04-23 10:56 | -21.35187 | 58.92293 | 5260 ft | 298 kts | 304° |
| 2026-04-23 10:57 | -21.34021 | 58.90473 | 5250 ft | 296 kts | 315° |
| 2026-04-23 10:57 | -21.32362 | 58.89198 | 5258 ft | 289 kts | 342° |
| 2026-04-23 10:57 | -21.30429 | 58.88847 | 5259 ft | 279 kts | 9° |
| 2026-04-23 10:57 | -21.28635 | 58.89433 | 5260 ft | 269 kts | 36° |
| 2026-04-23 10:58 | -21.27336 | 58.90802 | 5260 ft | 260 kts | 63° |
| 2026-04-23 10:58 | -21.26826 | 58.92610 | 5261 ft | 255 kts | 90° |
| 2026-04-23 10:58 | -21.27197 | 58.94446 | 5264 ft | 256 kts | 114° |
| 2026-04-23 10:58 | -21.27746 | 58.96234 | 5256 ft | 255 kts | 94° |
| 2026-04-23 10:59 | -21.27437 | 58.98097 | 5258 ft | 259 kts | 67° |
| 2026-04-23 10:59 | -21.26294 | 58.99589 | 5258 ft | 267 kts | 39° |
| 2026-04-23 10:59 | -21.24562 | 59.00356 | 5259 ft | 277 kts | 12° |
| 2026-04-23 10:59 | -21.22622 | 59.00191 | 5260 ft | 287 kts | 345° |
| 2026-04-23 11:00 | -21.20870 | 58.99169 | 5267 ft | 293 kts | 328° |
| 2026-04-23 11:00 | -21.19216 | 58.97859 | 5261 ft | 293 kts | 326° |
| 2026-04-23 11:00 | -21.17607 | 58.96553 | 5260 ft | 293 kts | 326° |
| 2026-04-23 11:00 | -21.15982 | 58.95194 | 5253 ft | 294 kts | 319° |
| 2026-04-23 11:01 | -21.14829 | 58.93384 | 5258 ft | 299 kts | 291° |
| 2026-04-23 11:01 | -21.14498 | 58.91229 | 5261 ft | 299 kts | 265° |
| 2026-04-23 11:01 | -21.15058 | 58.89105 | 5261 ft | 294 kts | 237° |
| 2026-04-23 11:01 | -21.16199 | 58.87295 | 5256 ft | 294 kts | 239° |
| 2026-04-23 11:02 | -21.16756 | 58.85200 | 5258 ft | 299 kts | 266° |
| 2026-04-23 11:02 | -21.16428 | 58.83047 | 5259 ft | 299 kts | 293° |
| 2026-04-23 11:02 | -21.15527 | 58.81047 | 5264 ft | 299 kts | 299° |
| 2026-04-23 11:02 | -21.14544 | 58.79090 | 5260 ft | 298 kts | 300° |
| 2026-04-23 11:03 | -21.13554 | 58.77138 | 5260 ft | 298 kts | 300° |
| 2026-04-23 11:03 | -21.12502 | 58.75074 | 5281 ft | 343 kts | 300° |
| 2026-04-23 11:03 | -21.11274 | 58.72683 | 5284 ft | 387 kts | 300° |
| 2026-04-23 11:03 | -21.09954 | 58.70123 | 5343 ft | 394 kts | 300° |
| 2026-04-23 11:04 | -21.08628 | 58.67554 | 5700 ft | 398 kts | 300° |
| 2026-04-23 11:04 | -21.07279 | 58.64944 | 6078 ft | 401 kts | 300° |
| 2026-04-23 11:04 | -21.05925 | 58.62325 | 6455 ft | 402 kts | 300° |
| 2026-04-23 11:04 | -21.04575 | 58.59718 | 6828 ft | 404 kts | 300° |
| 2026-04-23 11:05 | -21.03213 | 58.57088 | 7203 ft | 406 kts | 300° |
| 2026-04-23 11:05 | -21.01840 | 58.54439 | 7579 ft | 408 kts | 300° |
| 2026-04-23 11:05 | -21.00460 | 58.51779 | 7955 ft | 410 kts | 300° |
| 2026-04-23 11:05 | -20.99094 | 58.49146 | 8326 ft | 412 kts | 300° |
| 2026-04-23 11:06 | -20.96279 | 58.43731 | 9083 ft | 416 kts | 300° |
| 2026-04-23 11:06 | -20.94876 | 58.41037 | 9457 ft | 417 kts | 300° |
| 2026-04-23 11:06 | -20.93466 | 58.38330 | 9832 ft | 419 kts | 300° |
| 2026-04-23 11:07 | -20.92042 | 58.35598 | 10208 ft | 421 kts | 300° |
| 2026-04-23 11:07 | -20.90617 | 58.32867 | 10477 ft | 424 kts | 300° |
| 2026-04-23 11:07 | -20.89187 | 58.30130 | 10521 ft | 423 kts | 300° |
| 2026-04-23 11:07 | -20.87530 | 58.27523 | 10521 ft | 422 kts | 309° |
| 2026-04-23 11:08 | -20.85689 | 58.25078 | 10522 ft | 421 kts | 311° |
| 2026-04-23 11:08 | -20.83836 | 58.22683 | 10521 ft | 421 kts | 311° |
| 2026-04-23 11:08 | -20.81970 | 58.20282 | 10521 ft | 421 kts | 311° |
| 2026-04-23 11:08 | -20.80121 | 58.17905 | 10509 ft | 421 kts | 311° |
| 2026-04-23 11:09 | -20.78232 | 58.15479 | 10510 ft | 421 kts | 311° |
| 2026-04-23 11:09 | -20.76357 | 58.13072 | 10520 ft | 421 kts | 311° |
| 2026-04-23 11:09 | -20.74483 | 58.10669 | 10521 ft | 421 kts | 311° |
| 2026-04-23 11:09 | -20.72621 | 58.08284 | 10521 ft | 421 kts | 311° |
| 2026-04-23 11:10 | -20.70731 | 58.05863 | 10521 ft | 421 kts | 311° |
| 2026-04-23 11:10 | -20.68851 | 58.03458 | 10521 ft | 421 kts | 311° |
| 2026-04-23 11:10 | -20.66979 | 58.01065 | 10521 ft | 421 kts | 311° |
| 2026-04-23 11:10 | -20.65110 | 57.98678 | 10521 ft | 421 kts | 311° |
| 2026-04-23 11:11 | -20.63228 | 57.96276 | 10521 ft | 421 kts | 311° |
| 2026-04-23 11:11 | -20.61366 | 57.93901 | 10521 ft | 421 kts | 311° |
| 2026-04-23 11:11 | -20.59499 | 57.91523 | 10521 ft | 421 kts | 311° |
| 2026-04-23 11:11 | -20.57597 | 57.89100 | 10521 ft | 421 kts | 311° |
| 2026-04-23 11:12 | -20.55710 | 57.86699 | 10521 ft | 421 kts | 311° |
| 2026-04-23 11:12 | -20.53841 | 57.84322 | 10517 ft | 412 kts | 311° |
| 2026-04-23 11:12 | -20.52054 | 57.82048 | 10415 ft | 399 kts | 311° |
| 2026-04-23 11:12 | -20.50280 | 57.79788 | 9832 ft | 394 kts | 311° |
| 2026-04-23 11:13 | -20.48526 | 57.77554 | 9232 ft | 390 kts | 311° |
| 2026-04-23 11:13 | -20.46804 | 57.75361 | 8635 ft | 386 kts | 311° |
| 2026-04-23 11:13 | -20.45085 | 57.73171 | 8032 ft | 380 kts | 311° |
| 2026-04-23 11:13 | -20.43396 | 57.71020 | 7430 ft | 374 kts | 311° |
| 2026-04-23 11:14 | -20.41744 | 57.68914 | 6831 ft | 369 kts | 311° |
| 2026-04-23 11:14 | -20.40122 | 57.66847 | 6236 ft | 364 kts | 311° |
| 2026-04-23 11:14 | -20.38512 | 57.64795 | 5636 ft | 359 kts | 311° |
| 2026-04-23 11:14 | -20.36916 | 57.62759 | 5115 ft | 352 kts | 311° |
| 2026-04-23 11:15 | -20.35410 | 57.60834 | 5191 ft | 326 kts | 311° |
| 2026-04-23 11:15 | -20.34228 | 57.58881 | 5230 ft | 303 kts | 295° |
| 2026-04-23 11:15 | -20.33449 | 57.56882 | 5239 ft | 281 kts | 292° |
| 2026-04-23 11:15 | -20.32774 | 57.55028 | 5263 ft | 259 kts | 295° |
| 2026-04-23 11:16 | -20.31983 | 57.53402 | 5247 ft | 235 kts | 301° |
| 2026-04-23 11:16 | -20.31227 | 57.51979 | 5257 ft | 211 kts | 302° |
| 2026-04-23 11:16 | -20.30510 | 57.50634 | 5261 ft | 210 kts | 302° |
| 2026-04-23 11:16 | -20.29946 | 57.49207 | 5253 ft | 211 kts | 280° |
| 2026-04-23 11:17 | -20.30067 | 57.47668 | 5256 ft | 208 kts | 242° |
| 2026-04-23 11:17 | -20.30967 | 57.46556 | 5261 ft | 196 kts | 202° |
| 2026-04-23 11:17 | -20.32117 | 57.46268 | 5260 ft | 183 kts | 166° |
| 2026-04-23 11:17 | -20.33342 | 57.46695 | 5344 ft | 180 kts | 195° |
| 2026-04-23 11:18 | -20.34280 | 57.45605 | 3898 ft | 268 kts | 271° |
| 2026-04-23 11:18 | -20.34318 | 57.43643 | 4640 ft | 261 kts | 258° |
| 2026-04-23 11:18 | -20.34812 | 57.41784 | 5358 ft | 266 kts | 248° |
| 2026-04-23 11:18 | -20.35491 | 57.39853 | 5617 ft | 291 kts | 247° |
| 2026-04-23 11:19 | -20.36321 | 57.37820 | 5617 ft | 314 kts | 237° |
| 2026-04-23 11:19 | -20.37831 | 57.36107 | 5509 ft | 308 kts | 213° |
| 2026-04-23 11:19 | -20.39645 | 57.35284 | 5349 ft | 261 kts | 185° |
| 2026-04-23 11:19 | -20.41276 | 57.35432 | 5250 ft | 220 kts | 155° |
| 2026-04-23 11:20 | -20.42482 | 57.36192 | 5213 ft | 183 kts | 126° |
| 2026-04-23 11:20 | -20.42949 | 57.37339 | 5241 ft | 167 kts | 102° |
| 2026-04-23 11:20 | -20.42873 | 57.38560 | 5260 ft | 170 kts | 74° |
| 2026-04-23 11:20 | -20.42243 | 57.39629 | 5260 ft | 175 kts | 51° |
| 2026-04-23 11:21 | -20.41396 | 57.40564 | 5262 ft | 175 kts | 51° |
| 2026-04-23 11:21 | -20.40544 | 57.41500 | 5262 ft | 175 kts | 51° |
| 2026-04-23 11:21 | -20.39695 | 57.42432 | 5258 ft | 175 kts | 51° |
| 2026-04-23 11:21 | -20.38854 | 57.43356 | 5260 ft | 175 kts | 51° |
| 2026-04-23 11:22 | -20.38009 | 57.44285 | 5260 ft | 175 kts | 51° |
| 2026-04-23 11:22 | -20.37153 | 57.45227 | 5260 ft | 175 kts | 51° |
| 2026-04-23 11:22 | -20.36309 | 57.46155 | 5260 ft | 175 kts | 51° |
| 2026-04-23 11:22 | -20.35460 | 57.47089 | 5163 ft | 176 kts | 51° |
| 2026-04-23 11:23 | -20.34620 | 57.48027 | 4928 ft | 172 kts | 54° |
| 2026-04-23 11:23 | -20.33963 | 57.49055 | 4693 ft | 167 kts | 75° |
| 2026-04-23 11:23 | -20.34017 | 57.50251 | 4466 ft | 165 kts | 114° |
| 2026-04-23 11:23 | -20.34583 | 57.51306 | 4258 ft | 163 kts | 118° |
| 2026-04-23 11:24 | -20.35130 | 57.52334 | 4011 ft | 155 kts | 116° |
| 2026-04-23 11:24 | -20.35634 | 57.53339 | 3787 ft | 155 kts | 115° |
| 2026-04-23 11:24 | -20.36128 | 57.54338 | 3515 ft | 149 kts | 115° |
| 2026-04-23 11:24 | -20.36588 | 57.55269 | 3254 ft | 135 kts | 115° |
| 2026-04-23 11:25 | -20.37010 | 57.56127 | 2960 ft | 131 kts | 115° |
| 2026-04-23 11:25 | -20.37434 | 57.56989 | 2721 ft | 131 kts | 115° |
| 2026-04-23 11:25 | -20.37848 | 57.57830 | 2504 ft | 131 kts | 115° |
| 2026-04-23 11:25 | -20.38278 | 57.58702 | 2286 ft | 130 kts | 115° |
| 2026-04-23 11:26 | -20.38696 | 57.59552 | 2078 ft | 130 kts | 115° |
| 2026-04-23 11:26 | -20.39105 | 57.60384 | 1876 ft | 129 kts | 115° |
| 2026-04-23 11:26 | -20.39525 | 57.61237 | 1670 ft | 129 kts | 115° |
| 2026-04-23 11:26 | -20.39942 | 57.62084 | 1465 ft | 128 kts | 115° |
| 2026-04-23 11:27 | -20.40353 | 57.62920 | 1264 ft | 128 kts | 115° |
| 2026-04-23 11:27 | -20.40764 | 57.63755 | 1064 ft | 127 kts | 115° |
| 2026-04-23 11:27 | -20.41178 | 57.64598 | 862 ft | 127 kts | 115° |
| 2026-04-23 11:27 | -20.41586 | 57.65428 | 664 ft | 127 kts | 115° |
| 2026-04-23 11:28 | -20.41994 | 57.66256 | 469 ft | 126 kts | 115° |
| 2026-04-23 11:28 | -20.42400 | 57.67082 | 274 ft | 126 kts | 115° |
| 2026-04-23 11:28 | -20.42785 | 57.67875 | 184 ft | 106 kts | 116° |
| 2026-04-23 11:28 | -20.43029 | 57.68384 | 170 ft | 49 kts | 119° |
| 2026-04-23 11:29 | -20.43098 | 57.68520 | 166 ft | 1 kts | 118° |
| 2026-04-23 11:29 | -20.43115 | 57.68554 | 165 ft | 11 kts | 117° |
| 2026-04-23 11:29 | -20.43147 | 57.68621 | 163 ft | 18 kts | 116° |
| 2026-04-23 11:29 | -20.43223 | 57.68783 | 158 ft | 30 kts | 119° |
| 2026-04-23 11:30 | -20.43341 | 57.69015 | 149 ft | 40 kts | 116° |
| 2026-04-23 11:30 | -20.43467 | 57.69278 | 137 ft | 40 kts | 116° |
| 2026-04-23 11:30 | -20.43588 | 57.69536 | 122 ft | 36 kts | 118° |
| 2026-04-23 11:30 | -20.43680 | 57.69729 | 108 ft | 20 kts | 120° |
| 2026-04-23 11:31 | -20.43770 | 57.69759 | 102 ft | 11 kts | 214° |
| 2026-04-23 11:31 | -20.43797 | 57.69715 | 103 ft | 4 kts | 270° |
| 2026-04-23 11:31 | -20.43796 | 57.69707 | 104 ft | 0 kts | 285° |
| 2026-04-23 11:31 | -20.43786 | 57.69684 | 106 ft | 10 kts | 296° |
| 2026-04-23 11:32 | -20.43724 | 57.69543 | 117 ft | 32 kts | 293° |
| 2026-04-23 11:32 | -20.43612 | 57.69324 | 132 ft | 31 kts | 305° |
| 2026-04-23 11:32 | -20.43531 | 57.69160 | 141 ft | 20 kts | 293° |
| 2026-04-23 11:32 | -20.43476 | 57.69040 | 147 ft | 16 kts | 297° |
| 2026-04-23 11:33 | -20.43423 | 57.68932 | 152 ft | 18 kts | 296° |
| 2026-04-23 11:33 | -20.43358 | 57.68789 | 158 ft | 24 kts | 295° |
| 2026-04-23 11:33 | -20.43273 | 57.68608 | 165 ft | 30 kts | 298° |
| 2026-04-23 11:33 | -20.43196 | 57.68459 | 170 ft | 6 kts | 298° |
| 2026-04-23 11:34 | -20.43181 | 57.68429 | 171 ft | 3 kts | 298° |
| 2026-04-23 11:34 | -20.43174 | 57.68414 | 171 ft | 5 kts | 297° |
| 2026-04-23 11:34 | -20.43145 | 57.68354 | 173 ft | 14 kts | 296° |
| 2026-04-23 11:34 | -20.43094 | 57.68242 | 176 ft | 22 kts | 295° |
| 2026-04-23 11:35 | -20.43026 | 57.68063 | 182 ft | 24 kts | 284° |
| 2026-04-23 11:35 | -20.43005 | 57.67966 | 186 ft | 0 kts | 256° |
| 2026-04-23 11:35 | -20.43007 | 57.67959 | 187 ft | 6 kts | 244° |
| 2026-04-23 11:35 | -20.43017 | 57.67940 | 191 ft | 0 kts | 236° |